Meteorología y climatología de Navarra
Datos de la estación - Meteo Navarra

Estación de Erremendia (Salazar) GN

Altitud 1047 m.


Datos desde el 26/03/2020 hasta el 27/03/2020 en horario solar
Los datos son PROVISIONALES

Anterior Página 1 de 1 Siguiente Descargar: Formato para Excel 2000 o superior   Formato csv   Formato para OpenOffice Calc
Fecha Temperatura Humedad relativa Radiación global Insolación Precipitación Vel. viento 10 m Vel. viento 10 m Dir. viento 10 m
ºC % W/m² s l/m² m/s km/h º
26/03/2020 0:00 -3.5 94 0.0 0 0.0 1.4 5.2 204
26/03/2020 0:10 -3.2 93 0.0 0 0.0 1.4 5.1 238
26/03/2020 0:20 -3.2 93 0.0 0 0.0 0.7 2.6 291
26/03/2020 0:30 -3.3 93 0.0 0 0.0 0.1 0.4 226
26/03/2020 0:40 -3.5 93 0.0 0 0.0 0.4 1.4 180
26/03/2020 0:50 -3.9 93 0.0 0 0.0 0.7 2.5 246
26/03/2020 1:00 -3.9 93 0.0 0 0.0 0.6 2.0 191
26/03/2020 1:10 -3.7 94 0.0 0 0.0 0.0 0.1 217
26/03/2020 1:20 -3.6 94 0.0 0 0.0 0.3 0.9 33
26/03/2020 1:30 -3.1 94 0.0 0 0.0 0.2 0.7 303
26/03/2020 1:40 -2.7 95 0.0 0 0.0 0.1 0.4 301
26/03/2020 1:50 -1.8 96 0.0 0 0.0 0.6 2.2 257
26/03/2020 2:00 -0.3 96 0.0 0 0.0 1.0 3.5 217
26/03/2020 2:10 0.2 96 0.0 0 0.0 0.3 1.1 225
26/03/2020 2:20 0.8 97 0.0 0 0.0 0.4 1.5 307
26/03/2020 2:30 1.1 97 0.0 0 0.0 1.0 3.6 291
26/03/2020 2:40 1.2 97 0.0 0 0.0 1.0 3.7 280
26/03/2020 2:50 1.2 97 0.0 0 0.0 0.8 2.8 279
26/03/2020 3:00 1.3 97 0.0 0 0.0 1.4 5.1 273
26/03/2020 3:10 1.4 97 0.0 0 0.0 1.3 4.7 290
26/03/2020 3:20 1.5 97 0.0 0 0.0 1.2 4.2 280
26/03/2020 3:30 1.4 96 0.0 0 0.0 1.4 4.9 265
26/03/2020 3:40 1.5 96 0.0 0 0.0 1.3 4.6 299
26/03/2020 3:50 1.6 92 0.0 0 0.0 1.6 5.6 3
26/03/2020 4:00 2.2 81 0.0 0 0.0 2.5 9.1 347
26/03/2020 4:10 2.2 77 0.0 0 0.0 1.9 6.8 335
26/03/2020 4:20 2.1 76 0.0 0 0.0 3.3 11.8 348
26/03/2020 4:30 2.0 73 0.0 0 0.0 2.9 10.5 345
26/03/2020 4:40 1.9 72 0.0 0 0.0 2.8 10.0 343
26/03/2020 4:50 1.7 71 0.0 0 0.0 3.6 12.8 336
26/03/2020 5:00 1.7 69 0.0 0 0.0 2.4 8.7 346
26/03/2020 5:10 1.5 69 0.0 0 0.0 3.0 10.8 339
26/03/2020 5:20 1.5 69 0.0 0 0.0 3.4 12.1 337
26/03/2020 5:30 1.4 72 0.0 0 0.0 2.4 8.6 339
26/03/2020 5:40 1.3 73 0.0 0 0.0 2.1 7.6 358
26/03/2020 5:50 1.4 74 0.0 0 0.0 3.1 11.2 357
26/03/2020 6:00 1.4 75 0.0 0 0.0 1.8 6.6 1
26/03/2020 6:10 1.3 75 0.0 0 0.0 2.0 7.2 346
26/03/2020 6:20 1.3 75 3.5 0 0.0 3.3 12.0 357
26/03/2020 6:30 1.2 75 23.8 0 0.0 1.9 6.8 348
26/03/2020 6:40 1.2 72 41.1 0 0.0 2.5 9.0 360
26/03/2020 6:50 1.1 71 43.3 0 0.0 2.4 8.7 343
26/03/2020 7:00 1.0 71 49.0 0 0.0 2.8 10.1 357
26/03/2020 7:10 0.9 71 60.0 14 0.0 2.9 10.3 322
26/03/2020 7:20 0.9 72 88.1 68 0.0 2.0 7.1 4
26/03/2020 7:30 0.9 71 71.9 0 0.0 3.2 11.5 344
26/03/2020 7:40 0.8 71 83.0 12 0.0 4.2 15.1 349
26/03/2020 7:50 0.8 69 98.5 22 0.0 2.5 8.9 343
26/03/2020 8:00 0.9 69 89.4 48 0.0 2.2 7.9 15
26/03/2020 8:10 0.9 70 150.5 50 0.0 3.4 12.3 359
26/03/2020 8:20 1.0 70 131.7 12 0.0 4.3 15.6 342
26/03/2020 8:30 1.0 71 128.4 38 0.0 2.3 8.2 335
26/03/2020 8:40 1.1 69 183.3 52 0.0 2.8 10.2 341
26/03/2020 8:50 1.1 66 378.0 354 0.0 3.2 11.4 322
26/03/2020 9:00 1.4 63 369.5 328 0.0 2.4 8.5 319
26/03/2020 9:10 1.6 58 435.1 402 0.0 2.0 7.3 316
26/03/2020 9:20 1.7 56 536.6 514 0.0 2.8 10.0 353
26/03/2020 9:30 1.7 52 610.4 588 0.0 3.5 12.5 344
26/03/2020 9:40 2.1 51 642.1 600 0.0 3.2 11.6 348
26/03/2020 9:50 2.1 50 667.2 600 0.0 3.5 12.5 360
26/03/2020 10:00 2.5 49 686.7 600 0.0 2.9 10.3 331
26/03/2020 10:10 2.5 48 704.5 600 0.0 2.4 8.8 360
26/03/2020 10:20 2.2 48 716.5 600 0.0 3.6 13.1 341
26/03/2020 10:30 2.8 50 731.6 600 0.0 3.2 11.6 341
26/03/2020 10:40 2.7 49 747.5 600 0.0 3.6 13.1 334
26/03/2020 10:50 2.8 50 774.7 600 0.0 3.4 12.4 349
26/03/2020 11:00 3.4 51 783.3 600 0.0 3.0 10.7 342
26/03/2020 11:10 3.4 50 776.0 594 0.0 3.1 11.1 308
26/03/2020 11:20 3.7 50 791.3 594 0.0 2.6 9.3 324
26/03/2020 11:30 4.0 47 796.1 594 0.0 2.9 10.3 337
26/03/2020 11:40 4.0 44 816.0 600 0.0 3.8 13.8 23
26/03/2020 11:50 3.5 42 826.0 600 0.0 4.7 16.7 19
26/03/2020 12:00 3.8 41 825.0 600 0.0 3.5 12.4 1
26/03/2020 12:10 3.5 40 829.0 600 0.0 4.3 15.6 351
26/03/2020 12:20 3.5 41 829.0 600 0.0 3.8 13.6 1
26/03/2020 12:30 4.0 42 825.0 600 0.0 3.7 13.2 349
26/03/2020 12:40 4.0 42 823.0 600 0.0 4.7 16.7 333
26/03/2020 12:50 4.2 43 824.0 600 0.0 4.2 15.0 347
26/03/2020 13:00 3.9 42 816.0 600 0.0 4.5 16.2 351
26/03/2020 13:10 3.9 42 809.0 600 0.0 4.3 15.6 342
26/03/2020 13:20 3.9 41 797.1 600 0.0 5.0 18.1 334
26/03/2020 13:30 4.0 41 784.9 600 0.0 4.5 16.2 343
26/03/2020 13:40 3.9 43 771.7 600 0.0 4.5 16.2 345
26/03/2020 13:50 4.2 43 753.6 600 0.0 4.6 16.4 340
26/03/2020 14:00 4.2 41 739.2 600 0.0 4.4 15.8 341
26/03/2020 14:10 4.1 42 719.1 600 0.0 3.6 13.0 0
26/03/2020 14:20 4.6 41 703.7 600 0.0 3.8 13.7 353
26/03/2020 14:30 4.3 40 686.0 600 0.0 4.7 16.7 13
26/03/2020 14:40 4.1 41 660.8 600 0.0 4.6 16.5 355
26/03/2020 14:50 4.2 42 638.4 600 0.0 3.8 13.8 9
26/03/2020 15:00 4.3 39 612.2 600 0.0 4.5 16.2 345
26/03/2020 15:10 4.2 41 583.3 600 0.0 3.9 14.0 15
26/03/2020 15:20 4.0 41 560.7 600 0.0 4.2 15.0 12
26/03/2020 15:30 3.8 44 503.3 564 0.0 3.6 12.9 2
26/03/2020 15:40 3.8 44 408.6 430 0.0 3.1 11.0 351
26/03/2020 15:50 3.3 46 349.8 326 0.0 2.8 10.2 351
26/03/2020 16:00 3.4 46 341.5 312 0.0 2.9 10.5 336
26/03/2020 16:10 3.4 49 419.5 546 0.0 3.5 12.7 328
26/03/2020 16:20 3.4 49 396.5 600 0.0 4.3 15.3 347
26/03/2020 16:30 2.7 49 185.1 224 0.0 4.4 16.0 333
26/03/2020 16:40 2.7 51 310.7 536 0.0 3.0 10.8 339
26/03/2020 16:50 2.7 52 202.7 354 0.0 3.3 11.7 33
26/03/2020 17:00 2.2 53 174.8 380 0.0 3.4 12.2 10
26/03/2020 17:10 2.4 52 205.9 600 0.0 1.7 6.2 345
26/03/2020 17:20 2.5 53 161.3 600 0.0 2.8 10.1 309
26/03/2020 17:30 2.1 55 128.0 600 0.0 2.2 8.0 343
26/03/2020 17:40 2.1 55 96.7 600 0.0 1.6 5.8 309
26/03/2020 17:50 1.7 56 68.1 600 0.0 2.6 9.2 310
26/03/2020 18:00 1.4 58 49.7 600 0.0 1.2 4.4 37
26/03/2020 18:10 1.1 59 8.6 62 0.0 1.0 3.7 346
26/03/2020 18:20 0.6 61 0.0 0 0.0 1.8 6.5 354
26/03/2020 18:30 0.4 62 0.0 0 0.0 1.6 5.8 351
26/03/2020 18:40 0.3 63 0.0 0 0.0 2.4 8.7 344
26/03/2020 18:50 0.2 65 0.0 0 0.0 1.6 5.6 334
26/03/2020 19:00 -0.1 66 0.0 0 0.0 1.2 4.4 350
26/03/2020 19:10 -0.2 66 0.0 0 0.0 1.9 7.0 336
26/03/2020 19:20 -0.5 67 0.0 0 0.0 1.1 3.9 343
26/03/2020 19:30 -0.5 69 0.0 0 0.0 1.1 4.1 349
26/03/2020 19:40 -0.8 71 0.0 0 0.0 1.1 3.8 331
26/03/2020 19:50 -0.8 72 0.0 0 0.0 1.8 6.5 343
26/03/2020 20:00 -0.7 72 0.0 0 0.0 2.1 7.5 339
26/03/2020 20:10 -0.8 73 0.0 0 0.0 1.5 5.3 338
26/03/2020 20:20 -0.9 73 0.0 0 0.0 1.9 6.8 349
26/03/2020 20:30 -0.8 74 0.0 0 0.0 1.7 6.1 350
26/03/2020 20:40 -1.0 75 0.0 0 0.0 0.8 2.8 353
26/03/2020 20:50 -1.5 76 0.0 0 0.0 0.9 3.1 342
26/03/2020 21:00 -1.6 78 0.0 0 0.0 1.0 3.6 353
26/03/2020 21:10 -1.2 77 0.0 0 0.0 1.5 5.2 352
26/03/2020 21:20 -1.3 78 0.0 0 0.0 1.3 4.6 356
26/03/2020 21:30 -1.3 78 0.0 0 0.0 0.8 2.9 359
26/03/2020 21:40 -2.5 80 0.0 0 0.0 0.2 0.6 360
26/03/2020 21:50 -3.4 84 0.0 0 0.0 0.3 0.9 84
26/03/2020 22:00 -3.6 86 0.0 0 0.0 0.1 0.2 8
26/03/2020 22:10 -4.0 86 0.0 0 0.0 0.0 0.1 11
26/03/2020 22:20 -4.2 88 0.0 0 0.0 0.4 1.4 45
26/03/2020 22:30 -4.5 88 0.0 0 0.0 0.8 2.7 60
26/03/2020 22:40 -4.5 89 0.0 0 0.0 0.4 1.3 71
26/03/2020 22:50 -5.0 89 0.0 0 0.0 0.1 0.3 74
26/03/2020 23:00 -5.2 90 0.0 0 0.0 0.3 1.2 56
26/03/2020 23:10 -4.9 91 0.0 0 0.0 0.8 2.9 60
26/03/2020 23:20 -4.8 90 0.0 0 0.0 0.8 2.8 66
26/03/2020 23:30 -5.3 89 0.0 0 0.0 0.5 1.6 61
26/03/2020 23:40 -5.7 90 0.0 0 0.0 0.7 2.4 60
26/03/2020 23:50 -5.3 92 0.0 0 0.0 0.7 2.6 60
Anterior Página 1 de 1 Siguiente

NOTA: Tipo de datos según el color:
   - Valores diarios o 10 minutos correctos
   - Valores diarios calculados a partir de un número de datos 10 minutos menor que 144 y mayor que 120, o de un número de datos semihorarios menor que 48 y mayor que 40 (caso de las estaciones de INTIA y del Ministerio)
   - Valores diez minutos estimados


Contacto        Enlaces        Aviso legal